Time;durP1;ratioP1;P1;durP2;ratioP2;P2;SDS_P1;SDS_P2;PMS_P1;PMS_P2;Temp;Humidity;BMP_temperature;BMP_pressure;BME280_temperature;BME280_humidity;BME280_pressure;Samples;Min_cycle;Max_cycle;Signal;HPM_P1;HPM_P2
2023/02/06 16:53:33;;;;;;;108.00;60.70;;;;;;;0.05;71.41;102634.05;175671;1290;568502;-78
2023/02/06 16:57:43;;;;;;;77.90;40.90;;;;;;;0.20;70.71;102638.08;178549;1272;59464;-89
2023/02/06 17:16:06;;;;;;;34.60;18.60;;;;;;;0.70;69.64;102678.70;171229;1267;79829;-80
2023/02/06 17:20:37;;;;;;;28.60;16.50;;;;;;;0.80;69.33;102687.23;180121;1267;58016;-81
2023/02/06 17:24:41;;;;;;;27.60;16.00;;;;;;;0.84;69.46;102683.39;180154;1266;43538;-79
2023/02/06 17:28:45;;;;;;;58.40;29.20;;;;;;;0.86;69.88;102681.64;180285;1267;43962;-80
2023/02/06 17:37:55;;;;;;;34.80;22.30;;;;;;;0.84;69.77;102670.63;180226;1267;43526;-80
2023/02/06 17:42:02;;;;;;;34.70;20.60;;;;;;;0.85;70.15;102670.45;180156;1268;57023;-80
2023/02/06 17:46:06;;;;;;;53.70;29.80;;;;;;;0.85;70.39;102668.70;180292;1266;45907;-80
2023/02/06 17:50:37;;;;;;;68.00;36.90;;;;;;;0.69;70.77;102668.05;180421;1267;43844;-79
2023/02/06 17:54:41;;;;;;;72.30;38.70;;;;;;;0.51;71.06;102682.91;180329;1267;43526;-77
2023/02/06 17:58:50;;;;;;;42.80;28.20;;;;;;;0.40;71.77;102686.60;180061;1267;44003;-74
2023/02/06 18:02:56;;;;;;;35.40;19.70;;;;;;;0.33;72.49;102685.19;180249;1265;58326;-81
2023/02/06 18:08:05;;;;;;;67.40;37.70;;;;;;;0.16;73.03;102676.30;180269;1267;43976;-80
2023/02/06 18:12:08;;;;;;;71.20;38.60;;;;;;;0.11;72.87;102670.72;180331;1265;45949;-80
2023/02/06 18:21:35;;;;;;;44.20;28.80;;;;;;;0.19;72.85;102664.79;180393;1265;46061;-81
2023/02/06 18:25:40;;;;;;;34.80;21.40;;;;;;;0.19;73.24;102661.98;180308;1265;58308;-81
2023/02/06 18:29:47;;;;;;;44.70;27.10;;;;;;;0.16;72.86;102657.09;180391;1267;45252;-81
2023/02/06 18:33:53;;;;;;;;;;;;;;;0.07;73.07;102652.55;180335;1265;44498;-81
2023/02/06 18:37:56;;;;;;;43.60;28.70;;;;;;;0.03;72.87;102652.74;180278;1266;43444;-81
2023/02/06 18:46:24;;;;;;;46.40;28.10;;;;;;;-0.00;72.91;102659.54;180308;1266;58303;-80
2023/02/06 18:50:38;;;;;;;96.30;53.70;;;;;;;0.05;72.93;102661.46;180349;1265;43576;-80
2023/02/06 18:54:41;;;;;;;52.80;34.60;;;;;;;0.05;72.90;102668.61;180268;1265;43580;-80
2023/02/06 18:58:49;;;;;;;38.60;25.60;;;;;;;0.04;72.92;102662.17;180289;1265;45981;-81
2023/02/06 19:02:53;;;;;;;39.00;22.30;;;;;;;0.06;72.78;102667.75;180372;1264;43692;-81
2023/02/06 19:06:56;;;;;;;43.20;24.80;;;;;;;0.05;72.91;102677.52;180266;1265;58098;-81
2023/02/06 19:10:59;;;;;;;44.90;28.30;;;;;;;0.02;72.72;102682.06;180276;1268;43737;-81
2023/02/06 19:15:03;;;;;;;39.80;25.50;;;;;;;-0.03;72.68;102678.56;180218;1265;43747;-80
2023/02/06 19:19:06;;;;;;;39.20;25.60;;;;;;;-0.10;73.21;102680.46;180547;1262;45936;-81
2023/02/06 19:23:09;;;;;;;48.00;32.70;;;;;;;-0.14;73.36;102684.65;180498;1264;43606;-81
2023/02/06 19:27:16;;;;;;;38.50;25.50;;;;;;;-0.13;73.73;102696.85;180546;1264;58064;-80
2023/02/06 19:31:22;;;;;;;35.90;22.00;;;;;;;-0.16;73.65;102700.16;180506;1264;46044;-80
2023/02/06 19:35:27;;;;;;;36.10;23.30;;;;;;;-0.18;73.78;102704.19;180329;1267;46027;-78
2023/02/06 19:45:33;;;;;;;67.70;38.00;;;;;;;-0.29;72.67;102718.80;180521;1263;43671;-81
2023/02/06 19:49:37;;;;;;;40.90;23.00;;;;;;;-0.40;72.67;102727.31;180630;1264;58016;-82
2023/02/06 19:59:25;;;;;;;67.10;38.70;;;;;;;-0.56;76.03;102754.27;180498;1265;46035;-80
2023/02/06 20:04:02;;;;;;;96.50;51.90;;;;;;;-0.53;76.04;102757.59;179918;1270;44316;-81
2023/02/06 20:08:05;;;;;;;58.70;39.30;;;;;;;-0.55;75.96;102764.21;179968;1270;46046;-82
2023/02/06 20:12:14;;;;;;;41.30;27.40;;;;;;;-0.57;76.24;102776.41;179908;1270;57923;-82
2023/02/06 20:16:20;;;;;;;47.10;28.50;;;;;;;-0.60;76.21;102764.70;179823;1270;44861;-82
2023/02/06 20:20:23;;;;;;;44.10;29.20;;;;;;;-0.61;76.21;102764.70;179937;1264;44627;-80
2023/02/06 20:24:31;;;;;;;40.00;26.00;;;;;;;-0.60;76.01;102765.75;180432;1264;43609;-81
2023/02/06 20:28:56;;;;;;;37.40;23.60;;;;;;;-0.64;75.84;102778.28;180390;1264;45766;-80
2023/02/06 20:32:59;;;;;;;39.80;23.70;;;;;;;-0.69;76.20;102799.34;180591;1262;58296;-81
2023/02/06 20:37:17;;;;;;;32.60;22.40;;;;;;;-0.72;76.43;102807.17;180501;1262;43916;-81
2023/02/06 20:41:21;;;;;;;;;;;;;;;-0.81;76.23;102804.85;180702;1263;45975;-80
2023/02/06 20:45:33;;;;;;;70.30;32.30;;;;;;;-0.94;76.47;102809.11;180606;1265;43295;-78
2023/02/06 20:49:36;;;;;;;43.60;26.10;;;;;;;-1.08;76.62;102805.71;180593;1265;43527;-80
2023/02/06 20:54:05;;;;;;;53.00;29.80;;;;;;;-1.18;76.85;102814.34;180513;1264;58267;-80
2023/02/06 20:58:09;;;;;;;56.10;30.20;;;;;;;-1.23;76.86;102811.16;180687;1263;43573;-80
2023/02/06 21:02:48;;;;;;;49.30;30.00;;;;;;;-1.22;76.78;102799.69;180624;1264;43493;-78
2023/02/06 21:06:55;;;;;;;56.60;30.90;;;;;;;-1.19;76.34;102792.55;180626;1267;44786;-81
2023/02/06 21:10:58;;;;;;;59.10;28.70;;;;;;;-1.24;76.41;102797.05;180662;1264;45964;-79
2023/02/06 21:15:13;;;;;;;44.00;27.40;;;;;;;-1.30;76.62;102794.91;180708;1262;59554;-80
2023/02/06 21:19:45;;;;;;;41.00;23.70;;;;;;;-1.36;76.83;102788.77;180533;1263;45922;-81
2023/02/06 21:23:48;;;;;;;63.60;40.50;;;;;;;-1.60;77.72;102789.27;180563;1263;45980;-81
2023/02/06 21:27:52;;;;;;;80.80;42.70;;;;;;;-1.72;77.80;102787.06;180514;1263;43538;-81
2023/02/06 21:31:55;;;;;;;140.80;70.00;;;;;;;-1.72;77.88;102774.88;180449;1264;44554;-80
2023/02/06 21:36:15;;;;;;;167.40;92.60;;;;;;;-1.67;77.98;102765.19;180418;1264;57939;-79
2023/02/06 21:40:59;;;;;;;121.60;66.90;;;;;;;-1.58;78.03;102771.01;180517;1264;46045;-80
2023/02/06 21:45:03;;;;;;;88.80;54.00;;;;;;;-1.53;78.26;102778.02;180722;1263;43484;-81
2023/02/06 21:54:54;;;;;;;139.60;79.50;;;;;;;-1.81;78.50;102771.48;180556;1264;43446;-80
2023/02/06 21:58:57;;;;;;;158.80;87.40;;;;;;;-1.82;78.86;102772.35;180478;1263;58011;-80
2023/02/06 22:03:58;;;;;;;134.30;77.30;;;;;;;-1.73;78.91;102772.27;180666;1264;43756;-81
2023/02/06 22:08:02;;;;;;;128.80;73.80;;;;;;;-1.69;78.36;102774.20;180577;1264;43624;-81
2023/02/06 22:12:06;;;;;;;183.30;100.60;;;;;;;-1.69;77.87;102780.13;180523;1263;43652;-80
2023/02/06 22:16:11;;;;;;;146.30;81.60;;;;;;;-1.72;77.84;102779.94;180395;1263;43520;-80
2023/02/06 22:20:14;;;;;;;166.10;90.20;;;;;;;-1.90;78.56;102775.40;180762;1263;58253;-80
2023/02/06 22:24:18;;;;;;;170.50;92.00;;;;;;;-2.04;78.98;102769.00;180443;1268;43774;-79
2023/02/06 22:28:30;;;;;;;190.00;94.00;;;;;;;-2.04;79.29;102773.34;180433;1264;43573;-81
2023/02/06 22:32:37;;;;;;;165.30;86.20;;;;;;;-2.01;79.09;102778.41;180499;1264;43731;-80
2023/02/06 22:36:42;;;;;;;125.60;72.50;;;;;;;-1.97;78.96;102772.88;179653;1262;77728;-90
2023/02/06 22:40:46;;;;;;;159.60;89.80;;;;;;;-1.91;79.35;102774.17;177971;1268;59293;-89
2023/02/06 22:44:50;;;;;;;200.80;110.10;;;;;;;-1.83;78.83;102772.86;177976;1264;46102;-89
2023/02/06 22:48:55;;;;;;;179.50;92.60;;;;;;;-1.80;78.61;102780.89;177850;1268;45995;-89
2023/02/06 22:57:20;;;;;;;160.80;87.60;;;;;;;-1.73;78.16;102786.54;177464;1264;46090;-90
2023/02/06 23:01:29;;;;;;;118.50;70.30;;;;;;;-1.76;77.57;102797.98;178155;1265;59242;-90
2023/02/06 23:05:34;;;;;;;116.20;64.10;;;;;;;-1.80;77.59;102803.32;178340;1268;46037;-89
2023/02/06 23:09:39;;;;;;;73.90;42.70;;;;;;;-1.94;78.53;102818.66;178322;1261;46208;-89
2023/02/06 23:13:43;;;;;;;97.90;53.50;;;;;;;-2.25;81.01;102814.48;178674;1267;46087;-90
2023/02/06 23:17:48;;;;;;;89.70;50.30;;;;;;;-2.34;81.48;102826.54;179223;1263;45959;-90
2023/02/06 23:21:51;;;;;;;76.60;41.50;;;;;;;-2.33;81.36;102832.12;179512;1264;58214;-90
2023/02/06 23:25:57;;;;;;;87.20;51.10;;;;;;;-2.26;81.23;102839.84;179347;1262;46112;-90
2023/02/06 23:30:01;;;;;;;91.40;52.00;;;;;;;-2.20;81.59;102835.57;178890;1262;46010;-89
2023/02/06 23:34:05;;;;;;;89.80;51.60;;;;;;;-2.09;81.72;102838.50;178962;1262;44428;-89
2023/02/06 23:38:10;;;;;;;96.40;51.20;;;;;;;-1.99;80.86;102837.38;179290;1263;44595;-90
2023/02/06 23:42:13;;;;;;;77.70;48.20;;;;;;;-1.99;79.78;102838.08;178753;1263;58784;-90
2023/02/06 23:46:18;;;;;;;95.20;53.80;;;;;;;-2.02;79.52;102837.54;178835;1262;46010;-89
2023/02/06 23:50:23;;;;;;;92.00;52.00;;;;;;;-1.97;79.82;102835.85;178459;1267;46087;-90
2023/02/06 23:54:27;;;;;;;94.60;48.80;;;;;;;-1.97;79.74;102837.59;178840;1262;46112;-89
2023/02/06 23:58:31;;;;;;;86.30;48.70;;;;;;;-2.04;79.99;102841.68;178450;1264;46046;-89
